createdAt,value
2023-02-13T00:03:31.232Z,99465.22
2023-02-13T00:08:36.063Z,99464.06
2023-02-13T00:13:39.204Z,99457.91
2023-02-13T00:18:42.395Z,99456.66
2023-02-13T00:23:47.008Z,99455.09
2023-02-13T00:28:50.268Z,99447.88
2023-02-13T00:33:54.785Z,99455.25
2023-02-13T00:38:59.541Z,99451.00
2023-02-13T00:44:02.717Z,99440.84
2023-02-13T00:49:07.987Z,99449.31
2023-02-13T00:54:12.828Z,99449.69
2023-02-13T00:59:17.673Z,99448.78
2023-02-13T01:04:21.569Z,99448.59
2023-02-13T01:09:26.619Z,99448.38
2023-02-13T01:14:29.905Z,99454.53
2023-02-13T01:19:33.263Z,99455.19
2023-02-13T01:24:37.800Z,99464.91
2023-02-13T01:29:41.181Z,99454.84
2023-02-13T01:34:44.322Z,99447.00
2023-02-13T01:39:49.832Z,99457.72
2023-02-13T01:44:54.689Z,99454.78
2023-02-13T01:50:07.357Z,99453.13
2023-02-13T01:55:14.368Z,99452.59
2023-02-13T02:00:19.043Z,99450.88
2023-02-13T02:05:24.217Z,99461.53
2023-02-13T02:10:30.048Z,99455.09
2023-02-13T02:15:33.461Z,99456.25
2023-02-13T02:21:03.556Z,99456.25
2023-02-13T02:26:39.841Z,99457.19
2023-02-13T02:32:12.169Z,99461.09
2023-02-13T02:37:27.497Z,99466.41
2023-02-13T02:42:40.570Z,99461.53
2023-02-13T02:48:11.505Z,99460.44
2023-02-13T02:53:30.482Z,99460.63
2023-02-13T02:58:56.634Z,99454.69
2023-02-13T03:04:23.824Z,99447.66
2023-02-13T03:09:49.142Z,99438.91
2023-02-13T03:14:52.492Z,99440.50
2023-02-13T03:20:22.399Z,99444.72
2023-02-13T03:25:35.250Z,99447.38
2023-02-13T03:30:48.960Z,99436.06
2023-02-13T03:36:20.058Z,99434.41
2023-02-13T03:41:28.762Z,99436.16
2023-02-13T03:46:37.375Z,99428.25
2023-02-13T03:51:48.972Z,99423.75
2023-02-13T03:57:11.456Z,99426.47
2023-02-13T04:02:19.007Z,99430.03
2023-02-13T04:07:32.151Z,99436.22
2023-02-13T04:12:43.165Z,99425.50
2023-02-13T04:17:49.706Z,99415.91
2023-02-13T04:22:54.327Z,99417.31
2023-02-13T04:27:57.482Z,99419.91
2023-02-13T04:33:00.668Z,99423.47
2023-02-13T04:38:05.478Z,99413.03
2023-02-13T04:43:08.702Z,99417.63
2023-02-13T04:48:11.793Z,99422.78
2023-02-13T04:53:16.781Z,99421.72
2023-02-13T04:58:20.082Z,99420.72
2023-02-13T05:03:23.529Z,99423.75
2023-02-13T05:08:28.302Z,99423.53
2023-02-13T05:13:31.623Z,99415.00
2023-02-13T05:18:34.876Z,99428.38
2023-02-13T05:23:39.392Z,99427.06
2023-02-13T05:29:00.357Z,99422.66
2023-02-13T05:34:03.842Z,99420.81
2023-02-13T05:39:09.092Z,99418.38
2023-02-13T05:44:13.050Z,99415.63
2023-02-13T05:49:17.249Z,99424.03
2023-02-13T05:54:22.411Z,99422.38
2023-02-13T05:59:25.698Z,99425.03
2023-02-13T06:04:28.845Z,99427.75
2023-02-13T06:09:33.268Z,99420.25
2023-02-13T06:14:36.659Z,99435.34
2023-02-13T06:19:39.790Z,99434.78
2023-02-13T06:24:44.638Z,99433.97
2023-02-13T06:29:48.662Z,99428.84
2023-02-13T06:34:52.141Z,99429.00
2023-02-13T06:39:57.042Z,99430.72
2023-02-13T06:45:00.693Z,99432.41
2023-02-13T06:50:03.868Z,99431.28
2023-02-13T06:55:09.241Z,99439.88
2023-02-13T07:00:14.930Z,99451.09
2023-02-13T07:05:18.817Z,99450.34
2023-02-13T07:10:23.388Z,99458.72
2023-02-13T07:15:26.695Z,99464.22
2023-02-13T07:20:30.410Z,99467.66
2023-02-13T07:25:35.640Z,99461.50
2023-02-13T07:30:39.418Z,99464.97
2023-02-13T07:35:48.438Z,99468.56
2023-02-13T07:40:53.370Z,99469.16
2023-02-13T07:45:59.788Z,99465.63
2023-02-13T07:51:04.988Z,99463.81
2023-02-13T07:56:11.227Z,99465.44
2023-02-13T08:01:16.834Z,99454.91
2023-02-13T08:06:20.832Z,99457.38
2023-02-13T08:11:51.879Z,99453.03
2023-02-13T08:16:56.644Z,99460.31
2023-02-13T08:22:00.065Z,99455.47
2023-02-13T08:27:04.718Z,99454.47
2023-02-13T08:32:08.262Z,99463.53
2023-02-13T08:37:11.575Z,99458.72
2023-02-13T08:42:16.736Z,99462.50
2023-02-13T08:47:20.262Z,99458.38
2023-02-13T08:52:23.569Z,99462.66
2023-02-13T08:57:28.898Z,99464.44
2023-02-13T09:02:32.189Z,99465.94
2023-02-13T09:07:35.512Z,99473.38
2023-02-13T09:12:40.299Z,99466.75
2023-02-13T09:17:43.549Z,99467.25
2023-02-13T09:22:46.677Z,99478.13
2023-02-13T09:27:51.341Z,99491.16
2023-02-13T09:32:56.016Z,99482.31
2023-02-13T09:38:02.217Z,99474.66
2023-02-13T09:43:14.858Z,99488.16
2023-02-13T09:48:29.796Z,99482.44
2023-02-13T09:53:36.236Z,99476.31
2023-02-13T09:58:45.665Z,99474.78
2023-02-13T10:03:59.480Z,99475.16
2023-02-13T10:09:14.570Z,99476.94
2023-02-13T10:14:24.565Z,99464.34
2023-02-13T10:19:36.061Z,99475.91
2023-02-13T10:24:45.458Z,99471.16
2023-02-13T10:30:12.566Z,99469.41
2023-02-13T10:35:23.536Z,99467.13
2023-02-13T10:40:33.110Z,99457.97
2023-02-13T10:45:50.771Z,99453.97
2023-02-13T10:51:02.164Z,99450.84
2023-02-13T10:56:24.829Z,99443.41
2023-02-13T11:01:36.290Z,99438.50
2023-02-13T11:06:46.631Z,99435.03
2023-02-13T11:11:51.313Z,99427.94
2023-02-13T11:17:00.198Z,99428.06
2023-02-13T11:22:07.103Z,99423.22
2023-02-13T11:27:14.042Z,99413.56
2023-02-13T11:32:25.069Z,99412.47
2023-02-13T11:37:29.647Z,99418.16
2023-02-13T11:42:36.807Z,99409.34
2023-02-13T11:47:43.979Z,99405.19
2023-02-13T11:52:58.328Z,99393.44
2023-02-13T11:58:03.338Z,99394.69
2023-02-13T12:03:27.896Z,99391.72
2023-02-13T12:08:32.785Z,99384.25
2023-02-13T12:13:39.090Z,99380.56
2023-02-13T12:18:47.606Z,99379.41
2023-02-13T12:23:58.912Z,99376.22
2023-02-13T12:29:34.312Z,99385.28
2023-02-13T12:35:04.624Z,99370.63
2023-02-13T12:40:32.536Z,99363.41
2023-02-13T12:45:42.467Z,99357.28
2023-02-13T12:50:58.035Z,99350.44
2023-02-13T12:56:23.758Z,99352.81
2023-02-13T13:01:45.616Z,99358.81
2023-02-13T13:07:04.604Z,99353.72
2023-02-13T13:12:20.138Z,99348.97
2023-02-13T13:17:33.971Z,99339.66
2023-02-13T13:22:45.741Z,99345.38
2023-02-13T13:27:54.121Z,99337.75
2023-02-13T13:33:04.223Z,99324.16
2023-02-13T13:38:17.521Z,99333.00
2023-02-13T13:43:30.571Z,99327.38
2023-02-13T13:48:59.421Z,99324.88
2023-02-13T13:54:26.489Z,99315.78
2023-02-13T14:00:18.828Z,99309.84
2023-02-13T14:05:28.840Z,99317.78
2023-02-13T14:11:08.908Z,99307.00
2023-02-13T14:16:13.696Z,99305.13
2023-02-13T14:21:25.548Z,99306.56
2023-02-13T14:26:36.077Z,99309.22
2023-02-13T14:31:43.760Z,99294.97
2023-02-13T14:36:48.798Z,99295.38
2023-02-13T14:42:00.139Z,99293.09
2023-02-13T14:47:12.550Z,99283.75
2023-02-13T14:52:21.721Z,99292.56
2023-02-13T14:57:30.052Z,99278.00
2023-02-13T15:02:38.641Z,99279.19
2023-02-13T15:07:48.603Z,99270.53
2023-02-13T15:12:58.833Z,99273.13
2023-02-13T15:18:08.945Z,99272.03
2023-02-13T15:23:22.324Z,99271.13
2023-02-13T15:28:27.080Z,99266.94
2023-02-13T15:33:38.122Z,99270.84
2023-02-13T15:38:41.653Z,99270.06
2023-02-13T15:43:47.305Z,99263.63
2023-02-13T15:48:53.418Z,99267.81
2023-02-13T15:53:58.970Z,99271.94
2023-02-13T15:59:04.112Z,99273.13
2023-02-13T16:04:14.033Z,99271.91
2023-02-13T16:09:28.627Z,99270.59
2023-02-13T16:14:33.529Z,99268.53
2023-02-13T16:19:44.364Z,99282.56
2023-02-13T16:24:51.732Z,99281.19
2023-02-13T16:29:58.151Z,99281.84
2023-02-13T16:35:18.166Z,99282.50
2023-02-13T16:40:41.636Z,99284.63
2023-02-13T16:45:45.268Z,99287.81
2023-02-13T16:50:56.768Z,99292.00
2023-02-13T16:56:02.748Z,99293.69
2023-02-13T17:01:06.611Z,99303.72
2023-02-13T17:06:13.600Z,99311.22
2023-02-13T17:11:20.606Z,99315.09
2023-02-13T17:16:23.730Z,99317.53
2023-02-13T17:21:28.512Z,99330.63
2023-02-13T17:26:31.611Z,99329.13
2023-02-13T17:31:34.876Z,99321.34
2023-02-13T17:36:39.594Z,99319.63
2023-02-13T17:41:43.663Z,99313.19
2023-02-13T17:46:46.887Z,99324.31
2023-02-13T17:51:51.765Z,99321.03
2023-02-13T17:56:55.183Z,99325.88
2023-02-13T18:01:58.481Z,99327.81
2023-02-13T18:07:03.888Z,99338.63
2023-02-13T18:12:08.221Z,99335.91
2023-02-13T18:17:11.950Z,99343.13
2023-02-13T18:22:16.717Z,99355.94
2023-02-13T18:27:20.173Z,99359.31
2023-02-13T18:32:24.260Z,99349.63
2023-02-13T18:37:30.170Z,99350.78
2023-02-13T18:42:34.474Z,99347.41
2023-02-13T18:47:38.005Z,99342.53
2023-02-13T18:52:42.806Z,99348.59
2023-02-13T18:57:48.137Z,99330.50
2023-02-13T19:02:51.687Z,99328.91
2023-02-13T19:07:56.779Z,99332.63
2023-02-13T19:13:00.096Z,99327.66
2023-02-13T19:18:04.616Z,99334.53
2023-02-13T19:23:09.321Z,99326.78
2023-02-13T19:28:12.870Z,99325.97
2023-02-13T19:33:16.826Z,99315.66
2023-02-13T19:38:21.418Z,99317.38
2023-02-13T19:43:25.017Z,99321.72
2023-02-13T19:48:28.221Z,99330.56
2023-02-13T19:53:32.955Z,99332.38
2023-02-13T19:58:38.223Z,99332.47
2023-02-13T20:03:42.008Z,99328.97
2023-02-13T20:08:46.689Z,99327.31
2023-02-13T20:13:55.567Z,99326.47
2023-02-13T20:19:01.882Z,99318.94
2023-02-13T20:24:07.432Z,99316.16
2023-02-13T20:29:10.996Z,99321.47
2023-02-13T20:34:14.316Z,99316.34
2023-02-13T20:39:19.148Z,99324.13
2023-02-13T20:44:22.657Z,99325.91
2023-02-13T20:49:26.712Z,99324.22
2023-02-13T20:54:31.663Z,99317.34
2023-02-13T20:59:35.015Z,99314.78
2023-02-13T21:04:38.626Z,99315.66
2023-02-13T21:09:43.689Z,99306.91
2023-02-13T21:14:46.862Z,99308.72
2023-02-13T21:19:50.222Z,99313.28
2023-02-13T21:24:54.867Z,99308.84
2023-02-13T21:29:58.148Z,99307.09
2023-02-13T21:35:01.497Z,99312.34
2023-02-13T21:40:07.676Z,99309.75
2023-02-13T21:45:11.968Z,99305.44
2023-02-13T21:50:15.203Z,99304.75
2023-02-13T21:55:19.828Z,99308.13
2023-02-13T22:00:23.210Z,99297.75
2023-02-13T22:05:26.801Z,99293.53
2023-02-13T22:10:31.432Z,99296.06
2023-02-13T22:15:34.727Z,99294.31
2023-02-13T22:20:37.989Z,99299.53
2023-02-13T22:25:48.478Z,99298.69
2023-02-13T22:30:51.821Z,99302.31
2023-02-13T22:35:54.929Z,99316.97
2023-02-13T22:41:05.848Z,99310.88
2023-02-13T22:46:13.024Z,99306.59
2023-02-13T22:51:18.858Z,99316.16
2023-02-13T22:56:24.372Z,99320.50
2023-02-13T23:01:29.362Z,99313.72
2023-02-13T23:06:32.675Z,99311.84
2023-02-13T23:11:54.719Z,99311.03
2023-02-13T23:17:15.139Z,99308.44
2023-02-13T23:22:18.246Z,99316.31
2023-02-13T23:27:22.917Z,99315.53
2023-02-13T23:32:26.976Z,99310.28
2023-02-13T23:37:30.506Z,99307.72
2023-02-13T23:42:35.135Z,99305.13
2023-02-13T23:47:38.968Z,99314.63
2023-02-13T23:52:42.111Z,99314.66
2023-02-13T23:57:51.966Z,99318.13
